sensor_id;sensor_type;location;lat;lon;timestamp;temperature;humidity
16732;DHT22;8484;50.904;9.192;2022-07-23T00:01:30;17.30;99.90
16732;DHT22;8484;50.904;9.192;2022-07-23T00:03:57;17.30;99.90
16732;DHT22;8484;50.904;9.192;2022-07-23T00:06:25;17.20;99.90
16732;DHT22;8484;50.904;9.192;2022-07-23T00:08:52;17.20;99.90
16732;DHT22;8484;50.904;9.192;2022-07-23T00:11:18;17.10;99.90
16732;DHT22;8484;50.904;9.192;2022-07-23T00:13:47;17.20;99.90
16732;DHT22;8484;50.904;9.192;2022-07-23T00:16:16;17.30;99.90
16732;DHT22;8484;50.904;9.192;2022-07-23T00:18:42;17.30;99.90
16732;DHT22;8484;50.904;9.192;2022-07-23T00:21:09;17.30;99.90
16732;DHT22;8484;50.904;9.192;2022-07-23T00:23:36;17.20;99.90
16732;DHT22;8484;50.904;9.192;2022-07-23T00:26:04;17.30;99.90
16732;DHT22;8484;50.904;9.192;2022-07-23T00:28:33;17.40;99.90
16732;DHT22;8484;50.904;9.192;2022-07-23T00:31:00;17.30;99.90
16732;DHT22;8484;50.904;9.192;2022-07-23T00:33:28;17.30;99.90
16732;DHT22;8484;50.904;9.192;2022-07-23T00:35:55;17.40;99.90
16732;DHT22;8484;50.904;9.192;2022-07-23T00:38:22;17.50;99.90
16732;DHT22;8484;50.904;9.192;2022-07-23T00:40:49;17.40;99.90
16732;DHT22;8484;50.904;9.192;2022-07-23T00:43:15;17.30;99.90
16732;DHT22;8484;50.904;9.192;2022-07-23T00:45:42;17.30;99.90
16732;DHT22;8484;50.904;9.192;2022-07-23T00:48:09;17.30;99.90
16732;DHT22;8484;50.904;9.192;2022-07-23T00:50:37;17.40;99.90
16732;DHT22;8484;50.904;9.192;2022-07-23T00:53:05;17.50;99.90
16732;DHT22;8484;50.904;9.192;2022-07-23T00:55:34;17.50;99.90
16732;DHT22;8484;50.904;9.192;2022-07-23T00:58:01;17.40;99.90
16732;DHT22;8484;50.904;9.192;2022-07-23T01:00:29;17.50;99.90
16732;DHT22;8484;50.904;9.192;2022-07-23T01:02:55;17.40;99.90
16732;DHT22;8484;50.904;9.192;2022-07-23T01:05:22;17.30;99.90
16732;DHT22;8484;50.904;9.192;2022-07-23T01:07:51;17.10;99.90
16732;DHT22;8484;50.904;9.192;2022-07-23T01:10:18;16.90;99.90
16732;DHT22;8484;50.904;9.192;2022-07-23T01:12:58;16.70;99.90
16732;DHT22;8484;50.904;9.192;2022-07-23T01:15:25;16.90;99.90
16732;DHT22;8484;50.904;9.192;2022-07-23T01:17:51;16.90;99.90
16732;DHT22;8484;50.904;9.192;2022-07-23T01:20:19;16.90;99.90
16732;DHT22;8484;50.904;9.192;2022-07-23T01:22:47;16.90;99.90
16732;DHT22;8484;50.904;9.192;2022-07-23T01:25:14;16.90;99.90
16732;DHT22;8484;50.904;9.192;2022-07-23T01:27:41;17.00;99.90
16732;DHT22;8484;50.904;9.192;2022-07-23T01:30:09;16.90;99.90
16732;DHT22;8484;50.904;9.192;2022-07-23T01:32:36;16.80;99.90
16732;DHT22;8484;50.904;9.192;2022-07-23T01:35:04;16.80;99.90
16732;DHT22;8484;50.904;9.192;2022-07-23T01:37:31;16.80;99.90
16732;DHT22;8484;50.904;9.192;2022-07-23T01:39:59;16.70;99.90
16732;DHT22;8484;50.904;9.192;2022-07-23T01:42:26;16.80;99.90
16732;DHT22;8484;50.904;9.192;2022-07-23T01:44:53;16.80;99.90
16732;DHT22;8484;50.904;9.192;2022-07-23T01:47:20;16.80;99.90
16732;DHT22;8484;50.904;9.192;2022-07-23T01:49:47;16.80;99.90
16732;DHT22;8484;50.904;9.192;2022-07-23T01:52:14;16.80;99.90
16732;DHT22;8484;50.904;9.192;2022-07-23T01:54:42;16.80;99.90
16732;DHT22;8484;50.904;9.192;2022-07-23T01:57:10;16.80;99.90
16732;DHT22;8484;50.904;9.192;2022-07-23T01:59:37;16.70;99.90
16732;DHT22;8484;50.904;9.192;2022-07-23T02:02:05;16.70;99.90
16732;DHT22;8484;50.904;9.192;2022-07-23T02:04:31;16.80;99.90
16732;DHT22;8484;50.904;9.192;2022-07-23T02:07:01;16.70;99.90
16732;DHT22;8484;50.904;9.192;2022-07-23T02:09:28;16.70;99.90
16732;DHT22;8484;50.904;9.192;2022-07-23T02:11:55;16.80;99.90
16732;DHT22;8484;50.904;9.192;2022-07-23T02:14:23;16.90;99.90
16732;DHT22;8484;50.904;9.192;2022-07-23T02:16:50;16.90;99.90
16732;DHT22;8484;50.904;9.192;2022-07-23T02:19:17;16.90;99.90
16732;DHT22;8484;50.904;9.192;2022-07-23T02:21:44;16.80;99.90
16732;DHT22;8484;50.904;9.192;2022-07-23T02:24:10;16.80;99.90
16732;DHT22;8484;50.904;9.192;2022-07-23T02:26:37;16.80;99.90
16732;DHT22;8484;50.904;9.192;2022-07-23T02:29:05;16.70;99.90
16732;DHT22;8484;50.904;9.192;2022-07-23T02:31:34;16.80;99.90
16732;DHT22;8484;50.904;9.192;2022-07-23T02:34:01;16.70;99.90
16732;DHT22;8484;50.904;9.192;2022-07-23T02:36:28;16.80;99.90
16732;DHT22;8484;50.904;9.192;2022-07-23T02:38:55;16.80;99.90
16732;DHT22;8484;50.904;9.192;2022-07-23T02:41:22;16.70;99.90
16732;DHT22;8484;50.904;9.192;2022-07-23T02:43:49;16.60;99.90
16732;DHT22;8484;50.904;9.192;2022-07-23T02:46:16;16.60;99.90
16732;DHT22;8484;50.904;9.192;2022-07-23T02:48:44;16.60;99.90
16732;DHT22;8484;50.904;9.192;2022-07-23T02:51:11;16.60;99.90
16732;DHT22;8484;50.904;9.192;2022-07-23T02:53:38;16.60;99.90
16732;DHT22;8484;50.904;9.192;2022-07-23T02:56:05;16.70;99.90
16732;DHT22;8484;50.904;9.192;2022-07-23T02:58:32;16.60;99.90
16732;DHT22;8484;50.904;9.192;2022-07-23T03:00:58;16.50;99.90
16732;DHT22;8484;50.904;9.192;2022-07-23T03:03:25;16.50;99.90
16732;DHT22;8484;50.904;9.192;2022-07-23T03:05:53;16.40;99.90
16732;DHT22;8484;50.904;9.192;2022-07-23T03:08:20;16.40;99.90
16732;DHT22;8484;50.904;9.192;2022-07-23T03:10:47;16.40;99.90
16732;DHT22;8484;50.904;9.192;2022-07-23T03:13:14;16.30;99.90
16732;DHT22;8484;50.904;9.192;2022-07-23T03:15:41;16.50;99.90
16732;DHT22;8484;50.904;9.192;2022-07-23T03:18:07;16.50;99.90
16732;DHT22;8484;50.904;9.192;2022-07-23T03:20:34;16.50;99.90
16732;DHT22;8484;50.904;9.192;2022-07-23T03:23:02;16.60;99.90
16732;DHT22;8484;50.904;9.192;2022-07-23T03:25:29;16.60;99.90
16732;DHT22;8484;50.904;9.192;2022-07-23T03:27:56;16.60;99.90
16732;DHT22;8484;50.904;9.192;2022-07-23T03:30:23;16.50;99.90
16732;DHT22;8484;50.904;9.192;2022-07-23T03:32:50;16.60;99.90
16732;DHT22;8484;50.904;9.192;2022-07-23T03:35:16;16.60;99.90
16732;DHT22;8484;50.904;9.192;2022-07-23T03:37:43;16.70;99.90
16732;DHT22;8484;50.904;9.192;2022-07-23T03:40:12;16.60;99.90
16732;DHT22;8484;50.904;9.192;2022-07-23T03:42:38;16.70;99.90
16732;DHT22;8484;50.904;9.192;2022-07-23T03:45:08;16.60;99.90
16732;DHT22;8484;50.904;9.192;2022-07-23T03:47:35;16.60;99.90
16732;DHT22;8484;50.904;9.192;2022-07-23T03:50:02;16.60;99.90
16732;DHT22;8484;50.904;9.192;2022-07-23T03:52:29;16.50;99.90
16732;DHT22;8484;50.904;9.192;2022-07-23T03:54:56;16.50;99.90
16732;DHT22;8484;50.904;9.192;2022-07-23T03:57:24;16.50;99.90
16732;DHT22;8484;50.904;9.192;2022-07-23T03:59:51;16.50;99.90
16732;DHT22;8484;50.904;9.192;2022-07-23T04:02:17;16.50;99.90
16732;DHT22;8484;50.904;9.192;2022-07-23T04:04:44;16.60;99.90
16732;DHT22;8484;50.904;9.192;2022-07-23T04:07:12;16.60;99.90
16732;DHT22;8484;50.904;9.192;2022-07-23T04:09:39;16.50;99.90
16732;DHT22;8484;50.904;9.192;2022-07-23T04:12:07;16.60;99.90
16732;DHT22;8484;50.904;9.192;2022-07-23T04:14:36;16.50;99.90
16732;DHT22;8484;50.904;9.192;2022-07-23T04:17:03;16.50;99.90
16732;DHT22;8484;50.904;9.192;2022-07-23T04:19:29;16.50;99.90
16732;DHT22;8484;50.904;9.192;2022-07-23T04:21:58;16.40;99.90
16732;DHT22;8484;50.904;9.192;2022-07-23T04:24:24;16.60;99.90
16732;DHT22;8484;50.904;9.192;2022-07-23T04:26:51;16.50;99.90
16732;DHT22;8484;50.904;9.192;2022-07-23T04:29:18;16.60;99.90
16732;DHT22;8484;50.904;9.192;2022-07-23T04:31:46;16.80;99.90
16732;DHT22;8484;50.904;9.192;2022-07-23T04:34:13;16.70;99.90
16732;DHT22;8484;50.904;9.192;2022-07-23T04:36:40;16.80;99.90
16732;DHT22;8484;50.904;9.192;2022-07-23T04:39:07;16.80;99.90
16732;DHT22;8484;50.904;9.192;2022-07-23T04:41:34;16.90;99.90
16732;DHT22;8484;50.904;9.192;2022-07-23T04:44:00;17.00;99.90
16732;DHT22;8484;50.904;9.192;2022-07-23T04:46:27;16.90;99.90
16732;DHT22;8484;50.904;9.192;2022-07-23T04:48:55;17.00;99.90
16732;DHT22;8484;50.904;9.192;2022-07-23T04:51:22;16.80;99.90
16732;DHT22;8484;50.904;9.192;2022-07-23T04:53:49;16.80;99.90
16732;DHT22;8484;50.904;9.192;2022-07-23T04:56:16;16.80;99.90
16732;DHT22;8484;50.904;9.192;2022-07-23T04:58:43;16.80;99.90
16732;DHT22;8484;50.904;9.192;2022-07-23T05:01:10;16.80;99.90
16732;DHT22;8484;50.904;9.192;2022-07-23T05:03:37;16.80;99.90
16732;DHT22;8484;50.904;9.192;2022-07-23T05:06:05;16.80;99.90
16732;DHT22;8484;50.904;9.192;2022-07-23T05:08:32;16.80;99.90
16732;DHT22;8484;50.904;9.192;2022-07-23T05:10:59;16.70;99.90
16732;DHT22;8484;50.904;9.192;2022-07-23T05:13:26;16.80;99.90
16732;DHT22;8484;50.904;9.192;2022-07-23T05:15:52;16.70;99.90
16732;DHT22;8484;50.904;9.192;2022-07-23T05:18:19;16.90;99.90
16732;DHT22;8484;50.904;9.192;2022-07-23T05:20:46;17.00;99.90
16732;DHT22;8484;50.904;9.192;2022-07-23T05:23:14;17.10;99.90
16732;DHT22;8484;50.904;9.192;2022-07-23T05:25:41;17.20;99.90
16732;DHT22;8484;50.904;9.192;2022-07-23T05:28:08;17.30;99.90
16732;DHT22;8484;50.904;9.192;2022-07-23T05:30:34;17.30;99.90
16732;DHT22;8484;50.904;9.192;2022-07-23T05:33:01;17.40;99.90
16732;DHT22;8484;50.904;9.192;2022-07-23T05:35:28;17.50;99.90
16732;DHT22;8484;50.904;9.192;2022-07-23T05:37:55;17.60;99.90
16732;DHT22;8484;50.904;9.192;2022-07-23T05:40:23;17.50;99.90
16732;DHT22;8484;50.904;9.192;2022-07-23T05:42:50;17.60;99.90
16732;DHT22;8484;50.904;9.192;2022-07-23T05:45:17;17.60;99.90
16732;DHT22;8484;50.904;9.192;2022-07-23T05:47:45;17.50;99.90
16732;DHT22;8484;50.904;9.192;2022-07-23T05:50:13;17.60;99.90
16732;DHT22;8484;50.904;9.192;2022-07-23T05:52:41;17.70;99.90
16732;DHT22;8484;50.904;9.192;2022-07-23T05:55:09;17.60;99.90
16732;DHT22;8484;50.904;9.192;2022-07-23T05:57:39;17.80;99.90
16732;DHT22;8484;50.904;9.192;2022-07-23T06:00:08;18.00;99.90
16732;DHT22;8484;50.904;9.192;2022-07-23T06:02:37;17.90;99.90
16732;DHT22;8484;50.904;9.192;2022-07-23T06:05:04;18.00;99.90
16732;DHT22;8484;50.904;9.192;2022-07-23T06:07:33;18.10;99.90
16732;DHT22;8484;50.904;9.192;2022-07-23T06:09:59;18.20;99.90
16732;DHT22;8484;50.904;9.192;2022-07-23T06:12:26;18.40;99.90
16732;DHT22;8484;50.904;9.192;2022-07-23T06:14:54;18.60;99.90
16732;DHT22;8484;50.904;9.192;2022-07-23T06:17:21;18.80;99.90
16732;DHT22;8484;50.904;9.192;2022-07-23T06:19:48;18.90;99.90
16732;DHT22;8484;50.904;9.192;2022-07-23T06:22:15;19.10;99.90
16732;DHT22;8484;50.904;9.192;2022-07-23T06:24:42;19.20;99.90
16732;DHT22;8484;50.904;9.192;2022-07-23T06:27:08;19.20;99.90
16732;DHT22;8484;50.904;9.192;2022-07-23T06:29:35;19.30;99.90
16732;DHT22;8484;50.904;9.192;2022-07-23T06:32:04;19.50;99.90
16732;DHT22;8484;50.904;9.192;2022-07-23T06:34:31;19.50;99.90
16732;DHT22;8484;50.904;9.192;2022-07-23T06:36:57;19.40;99.90
16732;DHT22;8484;50.904;9.192;2022-07-23T06:39:24;19.40;99.90
16732;DHT22;8484;50.904;9.192;2022-07-23T06:41:51;19.50;99.90
16732;DHT22;8484;50.904;9.192;2022-07-23T06:44:18;19.70;99.90
16732;DHT22;8484;50.904;9.192;2022-07-23T06:46:45;19.70;99.90
16732;DHT22;8484;50.904;9.192;2022-07-23T06:49:13;20.00;99.90
16732;DHT22;8484;50.904;9.192;2022-07-23T06:51:40;20.20;99.90
16732;DHT22;8484;50.904;9.192;2022-07-23T06:54:07;20.20;99.90
16732;DHT22;8484;50.904;9.192;2022-07-23T06:56:34;20.70;99.90
16732;DHT22;8484;50.904;9.192;2022-07-23T06:59:00;20.90;99.90
16732;DHT22;8484;50.904;9.192;2022-07-23T07:01:27;21.00;99.90
16732;DHT22;8484;50.904;9.192;2022-07-23T07:03:54;21.30;99.90
16732;DHT22;8484;50.904;9.192;2022-07-23T07:06:22;21.10;99.90
16732;DHT22;8484;50.904;9.192;2022-07-23T07:08:49;21.20;99.90
16732;DHT22;8484;50.904;9.192;2022-07-23T07:11:16;21.20;99.90
16732;DHT22;8484;50.904;9.192;2022-07-23T07:13:42;21.20;99.90
16732;DHT22;8484;50.904;9.192;2022-07-23T07:16:09;21.40;99.90
16732;DHT22;8484;50.904;9.192;2022-07-23T07:18:36;21.30;99.90
16732;DHT22;8484;50.904;9.192;2022-07-23T07:21:03;20.80;99.90
16732;DHT22;8484;50.904;9.192;2022-07-23T07:23:31;20.90;99.90
16732;DHT22;8484;50.904;9.192;2022-07-23T07:25:58;20.80;99.90
16732;DHT22;8484;50.904;9.192;2022-07-23T07:28:24;20.80;99.90
16732;DHT22;8484;50.904;9.192;2022-07-23T07:30:51;20.60;99.90
16732;DHT22;8484;50.904;9.192;2022-07-23T07:33:18;20.90;99.90
16732;DHT22;8484;50.904;9.192;2022-07-23T07:35:46;21.00;99.90
16732;DHT22;8484;50.904;9.192;2022-07-23T07:38:13;21.40;99.90
16732;DHT22;8484;50.904;9.192;2022-07-23T07:40:41;21.70;99.90
16732;DHT22;8484;50.904;9.192;2022-07-23T07:43:08;22.10;99.90
16732;DHT22;8484;50.904;9.192;2022-07-23T07:45:35;21.60;99.90
16732;DHT22;8484;50.904;9.192;2022-07-23T07:48:02;22.10;99.90
16732;DHT22;8484;50.904;9.192;2022-07-23T07:50:28;22.30;99.90
16732;DHT22;8484;50.904;9.192;2022-07-23T07:52:55;22.30;99.90
16732;DHT22;8484;50.904;9.192;2022-07-23T07:55:22;22.30;99.90
16732;DHT22;8484;50.904;9.192;2022-07-23T07:57:50;22.50;99.90
16732;DHT22;8484;50.904;9.192;2022-07-23T08:00:17;22.80;99.90
16732;DHT22;8484;50.904;9.192;2022-07-23T08:02:46;23.10;99.90
16732;DHT22;8484;50.904;9.192;2022-07-23T08:05:14;23.30;99.90
16732;DHT22;8484;50.904;9.192;2022-07-23T08:07:41;22.40;99.90
16732;DHT22;8484;50.904;9.192;2022-07-23T08:10:08;22.30;99.90
16732;DHT22;8484;50.904;9.192;2022-07-23T08:12:41;22.60;99.90
16732;DHT22;8484;50.904;9.192;2022-07-23T08:15:12;23.10;99.90
16732;DHT22;8484;50.904;9.192;2022-07-23T08:17:39;23.60;99.90
16732;DHT22;8484;50.904;9.192;2022-07-23T08:20:07;23.20;99.90
16732;DHT22;8484;50.904;9.192;2022-07-23T08:22:42;23.40;99.90
16732;DHT22;8484;50.904;9.192;2022-07-23T08:25:09;24.00;99.90
16732;DHT22;8484;50.904;9.192;2022-07-23T08:27:36;24.00;99.90
16732;DHT22;8484;50.904;9.192;2022-07-23T08:30:04;23.90;99.90
16732;DHT22;8484;50.904;9.192;2022-07-23T08:32:32;24.20;99.90
16732;DHT22;8484;50.904;9.192;2022-07-23T08:34:59;24.50;99.90
16732;DHT22;8484;50.904;9.192;2022-07-23T08:37:26;24.90;99.90
16732;DHT22;8484;50.904;9.192;2022-07-23T08:39:53;25.00;99.90
16732;DHT22;8484;50.904;9.192;2022-07-23T08:42:21;24.90;99.90
16732;DHT22;8484;50.904;9.192;2022-07-23T08:44:48;25.10;99.90
16732;DHT22;8484;50.904;9.192;2022-07-23T08:47:16;25.30;99.90
16732;DHT22;8484;50.904;9.192;2022-07-23T08:49:46;25.30;99.90
16732;DHT22;8484;50.904;9.192;2022-07-23T08:52:13;26.10;99.90
16732;DHT22;8484;50.904;9.192;2022-07-23T08:54:41;25.80;99.90
16732;DHT22;8484;50.904;9.192;2022-07-23T08:57:07;25.20;99.90
16732;DHT22;8484;50.904;9.192;2022-07-23T08:59:34;25.60;99.90
16732;DHT22;8484;50.904;9.192;2022-07-23T09:02:01;25.60;99.90
16732;DHT22;8484;50.904;9.192;2022-07-23T09:04:28;25.70;99.90
16732;DHT22;8484;50.904;9.192;2022-07-23T09:06:56;25.70;99.90
16732;DHT22;8484;50.904;9.192;2022-07-23T09:09:23;26.30;99.90
16732;DHT22;8484;50.904;9.192;2022-07-23T09:12:03;25.60;99.90
16732;DHT22;8484;50.904;9.192;2022-07-23T09:14:38;25.70;99.90
16732;DHT22;8484;50.904;9.192;2022-07-23T09:17:09;26.30;99.90
16732;DHT22;8484;50.904;9.192;2022-07-23T09:19:36;25.80;99.90
16732;DHT22;8484;50.904;9.192;2022-07-23T09:22:18;26.00;99.90
16732;DHT22;8484;50.904;9.192;2022-07-23T09:25:07;26.80;99.90
16732;DHT22;8484;50.904;9.192;2022-07-23T09:27:50;27.10;99.90
16732;DHT22;8484;50.904;9.192;2022-07-23T09:30:18;27.10;99.90
16732;DHT22;8484;50.904;9.192;2022-07-23T09:33:04;27.50;99.90
16732;DHT22;8484;50.904;9.192;2022-07-23T09:35:45;27.10;99.90
16732;DHT22;8484;50.904;9.192;2022-07-23T09:38:13;27.00;99.90
16732;DHT22;8484;50.904;9.192;2022-07-23T09:40:41;26.90;99.90
16732;DHT22;8484;50.904;9.192;2022-07-23T09:43:07;26.90;99.90
16732;DHT22;8484;50.904;9.192;2022-07-23T09:45:34;27.20;99.90
16732;DHT22;8484;50.904;9.192;2022-07-23T09:48:11;27.10;99.90
16732;DHT22;8484;50.904;9.192;2022-07-23T09:50:39;28.00;99.90
16732;DHT22;8484;50.904;9.192;2022-07-23T09:53:06;28.60;99.90
16732;DHT22;8484;50.904;9.192;2022-07-23T09:55:35;28.60;99.70
16732;DHT22;8484;50.904;9.192;2022-07-23T09:58:04;28.30;99.80
16732;DHT22;8484;50.904;9.192;2022-07-23T10:00:32;27.40;99.90
16732;DHT22;8484;50.904;9.192;2022-07-23T10:02:59;26.60;99.90
16732;DHT22;8484;50.904;9.192;2022-07-23T10:05:27;26.00;99.90
16732;DHT22;8484;50.904;9.192;2022-07-23T10:07:55;25.20;99.90
16732;DHT22;8484;50.904;9.192;2022-07-23T10:10:26;25.10;99.90
16732;DHT22;8484;50.904;9.192;2022-07-23T10:12:56;25.10;99.90
16732;DHT22;8484;50.904;9.192;2022-07-23T10:15:37;25.60;99.90
16732;DHT22;8484;50.904;9.192;2022-07-23T10:18:06;27.00;99.90
16732;DHT22;8484;50.904;9.192;2022-07-23T10:20:34;26.80;99.90
16732;DHT22;8484;50.904;9.192;2022-07-23T10:23:07;26.90;99.90
16732;DHT22;8484;50.904;9.192;2022-07-23T10:25:43;27.60;99.90
16732;DHT22;8484;50.904;9.192;2022-07-23T10:28:22;27.70;99.90
16732;DHT22;8484;50.904;9.192;2022-07-23T10:30:55;26.80;99.90
16732;DHT22;8484;50.904;9.192;2022-07-23T10:33:32;25.70;99.90
16732;DHT22;8484;50.904;9.192;2022-07-23T10:36:12;25.90;99.90
16732;DHT22;8484;50.904;9.192;2022-07-23T10:38:53;26.20;99.90
16732;DHT22;8484;50.904;9.192;2022-07-23T10:41:32;25.50;99.90
16732;DHT22;8484;50.904;9.192;2022-07-23T10:44:11;25.20;99.90
16732;DHT22;8484;50.904;9.192;2022-07-23T10:46:56;24.70;99.90
16732;DHT22;8484;50.904;9.192;2022-07-23T10:49:32;25.70;99.90
16732;DHT22;8484;50.904;9.192;2022-07-23T10:52:16;27.10;99.90
16732;DHT22;8484;50.904;9.192;2022-07-23T10:54:44;28.00;99.90
16732;DHT22;8484;50.904;9.192;2022-07-23T10:57:13;29.00;99.40
16732;DHT22;8484;50.904;9.192;2022-07-23T11:00:14;29.90;97.80
16732;DHT22;8484;50.904;9.192;2022-07-23T11:02:43;29.40;96.10
16732;DHT22;8484;50.904;9.192;2022-07-23T11:05:13;30.20;96.70
16732;DHT22;8484;50.904;9.192;2022-07-23T11:08:12;30.90;94.50
16732;DHT22;8484;50.904;9.192;2022-07-23T11:10:43;30.10;94.20
16732;DHT22;8484;50.904;9.192;2022-07-23T11:13:30;28.90;95.60
16732;DHT22;8484;50.904;9.192;2022-07-23T11:16:07;28.40;96.60
16732;DHT22;8484;50.904;9.192;2022-07-23T11:18:59;29.90;95.50
16732;DHT22;8484;50.904;9.192;2022-07-23T11:21:44;30.50;94.40
16732;DHT22;8484;50.904;9.192;2022-07-23T11:24:12;30.30;93.60
16732;DHT22;8484;50.904;9.192;2022-07-23T11:26:54;29.40;92.90
16732;DHT22;8484;50.904;9.192;2022-07-23T11:29:43;28.80;94.60
16732;DHT22;8484;50.904;9.192;2022-07-23T11:32:33;28.30;94.90
16732;DHT22;8484;50.904;9.192;2022-07-23T11:35:01;29.50;94.30
16732;DHT22;8484;50.904;9.192;2022-07-23T11:37:37;29.80;93.30
16732;DHT22;8484;50.904;9.192;2022-07-23T11:40:08;29.80;93.30
16732;DHT22;8484;50.904;9.192;2022-07-23T11:42:36;30.80;91.60
16732;DHT22;8484;50.904;9.192;2022-07-23T11:45:05;31.30;91.40
16732;DHT22;8484;50.904;9.192;2022-07-23T11:47:34;31.80;90.00
16732;DHT22;8484;50.904;9.192;2022-07-23T11:50:05;31.70;88.50
16732;DHT22;8484;50.904;9.192;2022-07-23T11:52:32;30.90;90.40
16732;DHT22;8484;50.904;9.192;2022-07-23T11:55:00;30.50;90.30
16732;DHT22;8484;50.904;9.192;2022-07-23T11:57:29;30.20;90.80
16732;DHT22;8484;50.904;9.192;2022-07-23T11:59:58;30.70;90.50
16732;DHT22;8484;50.904;9.192;2022-07-23T12:02:27;30.60;90.40
16732;DHT22;8484;50.904;9.192;2022-07-23T12:04:55;31.40;90.20
16732;DHT22;8484;50.904;9.192;2022-07-23T12:07:26;31.50;89.50
16732;DHT22;8484;50.904;9.192;2022-07-23T12:09:54;31.50;89.40
16732;DHT22;8484;50.904;9.192;2022-07-23T12:12:22;31.30;87.40
16732;DHT22;8484;50.904;9.192;2022-07-23T12:14:50;31.80;84.10
16732;DHT22;8484;50.904;9.192;2022-07-23T12:17:17;31.80;87.00
16732;DHT22;8484;50.904;9.192;2022-07-23T12:19:45;31.30;86.40
16732;DHT22;8484;50.904;9.192;2022-07-23T12:22:14;30.50;87.60
16732;DHT22;8484;50.904;9.192;2022-07-23T12:24:54;31.00;85.20
16732;DHT22;8484;50.904;9.192;2022-07-23T12:27:21;29.60;89.40
16732;DHT22;8484;50.904;9.192;2022-07-23T12:29:49;30.20;88.60
16732;DHT22;8484;50.904;9.192;2022-07-23T12:32:18;30.90;86.20
16732;DHT22;8484;50.904;9.192;2022-07-23T12:34:46;30.70;85.60
16732;DHT22;8484;50.904;9.192;2022-07-23T12:37:30;29.40;87.30
16732;DHT22;8484;50.904;9.192;2022-07-23T12:39:57;30.50;88.50
16732;DHT22;8484;50.904;9.192;2022-07-23T12:42:25;31.60;84.40
16732;DHT22;8484;50.904;9.192;2022-07-23T12:45:06;32.00;84.90
16732;DHT22;8484;50.904;9.192;2022-07-23T12:47:55;32.60;84.20
16732;DHT22;8484;50.904;9.192;2022-07-23T12:50:52;32.60;81.70
16732;DHT22;8484;50.904;9.192;2022-07-23T12:53:23;32.40;81.90
16732;DHT22;8484;50.904;9.192;2022-07-23T12:55:57;31.30;82.80
16732;DHT22;8484;50.904;9.192;2022-07-23T12:58:25;31.50;81.60
16732;DHT22;8484;50.904;9.192;2022-07-23T13:01:00;31.00;81.40
16732;DHT22;8484;50.904;9.192;2022-07-23T13:03:33;30.70;85.20
16732;DHT22;8484;50.904;9.192;2022-07-23T13:06:02;31.70;79.70
16732;DHT22;8484;50.904;9.192;2022-07-23T13:08:31;31.80;82.00
16732;DHT22;8484;50.904;9.192;2022-07-23T13:10:59;32.30;78.90
16732;DHT22;8484;50.904;9.192;2022-07-23T13:13:27;31.70;81.00
16732;DHT22;8484;50.904;9.192;2022-07-23T13:15:55;32.20;81.50
16732;DHT22;8484;50.904;9.192;2022-07-23T13:18:22;31.60;78.50
16732;DHT22;8484;50.904;9.192;2022-07-23T13:20:49;31.50;81.70
16732;DHT22;8484;50.904;9.192;2022-07-23T13:23:16;31.40;81.80
16732;DHT22;8484;50.904;9.192;2022-07-23T13:25:45;32.20;79.30
16732;DHT22;8484;50.904;9.192;2022-07-23T13:28:12;32.30;79.70
16732;DHT22;8484;50.904;9.192;2022-07-23T13:30:40;32.70;77.40
16732;DHT22;8484;50.904;9.192;2022-07-23T13:33:08;31.50;80.20
16732;DHT22;8484;50.904;9.192;2022-07-23T13:35:36;30.70;81.00
16732;DHT22;8484;50.904;9.192;2022-07-23T13:38:04;30.50;81.50
16732;DHT22;8484;50.904;9.192;2022-07-23T13:40:36;30.30;81.10
16732;DHT22;8484;50.904;9.192;2022-07-23T13:43:06;29.80;83.20
16732;DHT22;8484;50.904;9.192;2022-07-23T13:45:34;30.10;82.80
16732;DHT22;8484;50.904;9.192;2022-07-23T13:48:01;30.00;82.80
16732;DHT22;8484;50.904;9.192;2022-07-23T13:50:28;29.20;83.30
16732;DHT22;8484;50.904;9.192;2022-07-23T13:52:55;29.20;84.80
16732;DHT22;8484;50.904;9.192;2022-07-23T13:55:22;29.90;83.00
16732;DHT22;8484;50.904;9.192;2022-07-23T13:57:49;30.20;83.60
16732;DHT22;8484;50.904;9.192;2022-07-23T14:00:18;30.10;81.20
16732;DHT22;8484;50.904;9.192;2022-07-23T14:02:45;29.50;82.80
16732;DHT22;8484;50.904;9.192;2022-07-23T14:05:12;29.10;84.50
16732;DHT22;8484;50.904;9.192;2022-07-23T14:07:39;29.60;82.20
16732;DHT22;8484;50.904;9.192;2022-07-23T14:10:09;30.00;82.40
16732;DHT22;8484;50.904;9.192;2022-07-23T14:12:38;29.60;82.00
16732;DHT22;8484;50.904;9.192;2022-07-23T14:15:06;29.30;82.00
16732;DHT22;8484;50.904;9.192;2022-07-23T14:17:36;28.90;83.10
16732;DHT22;8484;50.904;9.192;2022-07-23T14:20:04;29.90;82.80
16732;DHT22;8484;50.904;9.192;2022-07-23T14:22:31;29.00;82.20
16732;DHT22;8484;50.904;9.192;2022-07-23T14:24:58;28.30;84.00
16732;DHT22;8484;50.904;9.192;2022-07-23T14:27:26;28.40;85.80
16732;DHT22;8484;50.904;9.192;2022-07-23T14:29:53;28.30;85.10
16732;DHT22;8484;50.904;9.192;2022-07-23T14:32:20;28.40;84.60
16732;DHT22;8484;50.904;9.192;2022-07-23T14:34:48;28.60;86.00
16732;DHT22;8484;50.904;9.192;2022-07-23T14:37:15;29.40;83.90
16732;DHT22;8484;50.904;9.192;2022-07-23T14:39:43;29.70;82.00
16732;DHT22;8484;50.904;9.192;2022-07-23T14:42:11;29.00;83.40
16732;DHT22;8484;50.904;9.192;2022-07-23T14:44:38;28.60;83.20
16732;DHT22;8484;50.904;9.192;2022-07-23T14:47:05;28.60;82.90
16732;DHT22;8484;50.904;9.192;2022-07-23T14:49:33;28.60;83.90
16732;DHT22;8484;50.904;9.192;2022-07-23T14:52:01;28.20;82.90
16732;DHT22;8484;50.904;9.192;2022-07-23T14:54:28;28.40;83.60
16732;DHT22;8484;50.904;9.192;2022-07-23T14:56:57;28.90;84.00
16732;DHT22;8484;50.904;9.192;2022-07-23T14:59:24;28.90;82.50
16732;DHT22;8484;50.904;9.192;2022-07-23T15:01:52;28.80;83.00
16732;DHT22;8484;50.904;9.192;2022-07-23T15:04:19;28.50;83.70
16732;DHT22;8484;50.904;9.192;2022-07-23T15:06:45;28.70;83.00
16732;DHT22;8484;50.904;9.192;2022-07-23T15:09:14;28.50;83.90
16732;DHT22;8484;50.904;9.192;2022-07-23T15:11:41;27.80;85.20
16732;DHT22;8484;50.904;9.192;2022-07-23T15:14:08;27.00;88.10
16732;DHT22;8484;50.904;9.192;2022-07-23T15:16:35;27.10;88.60
16732;DHT22;8484;50.904;9.192;2022-07-23T15:19:02;26.90;87.90
16732;DHT22;8484;50.904;9.192;2022-07-23T15:21:30;27.10;88.80
16732;DHT22;8484;50.904;9.192;2022-07-23T15:23:57;27.20;88.60
16732;DHT22;8484;50.904;9.192;2022-07-23T15:26:26;27.70;87.50
16732;DHT22;8484;50.904;9.192;2022-07-23T15:28:53;28.40;86.30
16732;DHT22;8484;50.904;9.192;2022-07-23T15:31:20;28.70;83.80
16732;DHT22;8484;50.904;9.192;2022-07-23T15:33:47;28.60;84.30
16732;DHT22;8484;50.904;9.192;2022-07-23T15:36:14;28.40;84.10
16732;DHT22;8484;50.904;9.192;2022-07-23T15:38:43;28.10;85.20
16732;DHT22;8484;50.904;9.192;2022-07-23T15:41:10;28.30;85.50
16732;DHT22;8484;50.904;9.192;2022-07-23T15:43:38;28.70;83.20
16732;DHT22;8484;50.904;9.192;2022-07-23T15:46:05;28.40;84.10
16732;DHT22;8484;50.904;9.192;2022-07-23T15:48:34;27.80;83.20
16732;DHT22;8484;50.904;9.192;2022-07-23T15:51:01;27.30;85.30
16732;DHT22;8484;50.904;9.192;2022-07-23T15:53:28;27.10;85.30
16732;DHT22;8484;50.904;9.192;2022-07-23T15:55:55;27.60;87.00